createdAt,value
2019-03-04T00:01:40.385Z,18.30
2019-03-04T00:04:12.238Z,19.63
2019-03-04T00:06:43.798Z,18.23
2019-03-04T00:09:15.704Z,19.10
2019-03-04T00:11:47.485Z,19.40
2019-03-04T00:14:18.592Z,17.10
2019-03-04T00:16:50.199Z,18.60
2019-03-04T00:19:21.556Z,18.20
2019-03-04T00:21:53.154Z,18.33
2019-03-04T00:24:25.515Z,18.60
2019-03-04T00:26:56.520Z,17.90
2019-03-04T00:29:28.036Z,18.07
2019-03-04T00:31:59.866Z,18.67
2019-03-04T00:34:31.999Z,18.47
2019-03-04T00:37:04.461Z,17.23
2019-03-04T00:39:36.064Z,18.50
2019-03-04T00:42:07.827Z,17.00
2019-03-04T00:44:39.866Z,16.70
2019-03-04T00:47:11.599Z,17.97
2019-03-04T00:49:43.796Z,17.73
2019-03-04T00:52:15.435Z,17.10
2019-03-04T00:54:48.107Z,17.77
2019-03-04T00:57:20.187Z,18.10
2019-03-04T00:59:52.018Z,18.00
2019-03-04T01:02:24.401Z,16.57
2019-03-04T01:04:56.123Z,19.40
2019-03-04T01:07:28.154Z,17.73
2019-03-04T01:09:59.738Z,18.00
2019-03-04T01:12:32.201Z,19.63
2019-03-04T01:15:04.311Z,18.30
2019-03-04T01:17:36.235Z,18.87
2019-03-04T01:20:08.197Z,18.43
2019-03-04T01:22:39.157Z,18.33
2019-03-04T01:25:12.436Z,17.10
2019-03-04T01:27:43.708Z,17.73
2019-03-04T01:30:18.671Z,17.57
2019-03-04T01:32:51.591Z,18.83
2019-03-04T01:35:23.563Z,17.90
2019-03-04T01:37:55.933Z,18.53
2019-03-04T01:40:27.640Z,18.63
2019-03-04T01:42:58.634Z,17.40
2019-03-04T01:45:30.390Z,17.33
2019-03-04T01:48:01.789Z,17.57
2019-03-04T01:50:33.476Z,17.87
2019-03-04T01:53:05.633Z,17.70
2019-03-04T01:55:37.712Z,17.63
2019-03-04T01:58:10.675Z,17.53
2019-03-04T02:00:42.188Z,17.67
2019-03-04T02:03:14.869Z,16.83
2019-03-04T02:05:46.461Z,17.03
2019-03-04T02:08:18.744Z,16.30
2019-03-04T02:10:50.723Z,17.73
2019-03-04T02:13:22.157Z,16.90
2019-03-04T02:15:53.876Z,17.40
2019-03-04T02:18:25.367Z,17.23
2019-03-04T02:20:58.004Z,18.80
2019-03-04T02:23:29.202Z,18.63
2019-03-04T02:26:22.386Z,17.97
2019-03-04T02:28:53.502Z,16.50
2019-03-04T02:31:24.427Z,17.23
2019-03-04T02:33:57.278Z,16.77
2019-03-04T02:36:28.635Z,15.00
2019-03-04T02:39:00.195Z,15.90
2019-03-04T02:41:31.502Z,15.90
2019-03-04T02:44:02.512Z,16.77
2019-03-04T02:46:37.105Z,16.70
2019-03-04T02:49:09.347Z,16.87
2019-03-04T02:51:40.267Z,16.03
2019-03-04T02:54:11.465Z,16.70
2019-03-04T02:56:43.389Z,17.63
2019-03-04T02:59:14.588Z,17.00
2019-03-04T03:01:45.906Z,17.10
2019-03-04T03:04:16.909Z,17.60
2019-03-04T03:06:49.146Z,17.30
2019-03-04T03:09:21.509Z,16.87
2019-03-04T03:11:53.593Z,17.33
2019-03-04T03:14:25.012Z,17.10
2019-03-04T03:16:56.181Z,15.60
2019-03-04T03:19:28.021Z,17.33
2019-03-04T03:21:59.543Z,17.73
2019-03-04T03:24:31.013Z,17.00
2019-03-04T03:27:02.070Z,17.63
2019-03-04T03:29:33.634Z,17.50
2019-03-04T03:32:04.961Z,17.90
2019-03-04T03:34:36.693Z,16.53
2019-03-04T03:37:08.564Z,16.40
2019-03-04T03:39:40.550Z,16.50
2019-03-04T03:42:12.660Z,16.77
2019-03-04T03:44:44.484Z,16.67
2019-03-04T03:47:16.154Z,17.03
2019-03-04T03:49:47.463Z,16.73
2019-03-04T03:52:19.284Z,16.70
2019-03-04T03:54:51.067Z,16.60
2019-03-04T03:57:22.631Z,18.30
2019-03-04T03:59:54.234Z,16.50
2019-03-04T04:02:26.746Z,16.53
2019-03-04T04:04:59.479Z,15.90
2019-03-04T04:07:31.357Z,16.27
2019-03-04T04:10:03.719Z,16.07
2019-03-04T04:12:34.933Z,14.50
2019-03-04T04:15:08.027Z,14.50
2019-03-04T04:17:39.845Z,15.73
2019-03-04T04:20:11.736Z,15.20
2019-03-04T04:22:43.705Z,15.60
2019-03-04T04:25:16.593Z,15.50
2019-03-04T04:27:48.330Z,14.77
2019-03-04T04:30:22.146Z,16.10
2019-03-04T04:32:53.566Z,14.73
2019-03-04T04:35:24.826Z,14.50
2019-03-04T04:37:58.306Z,15.70
2019-03-04T04:40:29.961Z,14.90
2019-03-04T04:43:01.829Z,14.60
2019-03-04T04:45:33.172Z,14.87
2019-03-04T04:48:06.776Z,14.47
2019-03-04T04:50:37.960Z,15.33
2019-03-04T04:53:09.043Z,15.33
2019-03-04T04:55:40.112Z,15.00
2019-03-04T04:58:11.364Z,15.53
2019-03-04T05:00:42.827Z,14.57
2019-03-04T05:03:14.377Z,15.57
2019-03-04T05:05:46.196Z,14.80
2019-03-04T05:08:18.197Z,15.40
2019-03-04T05:10:49.420Z,14.57
2019-03-04T05:13:21.122Z,15.37
2019-03-04T05:15:52.465Z,15.50
2019-03-04T05:18:24.237Z,15.43
2019-03-04T05:20:55.906Z,14.10
2019-03-04T05:23:27.721Z,14.07
2019-03-04T05:25:59.321Z,14.57
2019-03-04T05:28:30.943Z,16.57
2019-03-04T05:31:03.137Z,14.53
2019-03-04T05:33:34.723Z,15.90
2019-03-04T05:36:06.636Z,15.70
2019-03-04T05:38:38.569Z,14.90
2019-03-04T05:41:10.641Z,14.40
2019-03-04T05:43:42.600Z,14.20
2019-03-04T05:46:14.813Z,14.67
2019-03-04T05:48:47.201Z,15.47
2019-03-04T05:51:19.425Z,15.57
2019-03-04T05:53:52.600Z,15.90
2019-03-04T05:56:24.695Z,14.17
2019-03-04T05:58:57.072Z,14.03
2019-03-04T06:01:33.469Z,14.57
2019-03-04T06:04:07.230Z,17.07
2019-03-04T06:07:01.187Z,17.33
2019-03-04T06:09:32.561Z,16.50
2019-03-04T06:12:03.706Z,15.50
2019-03-04T06:14:35.205Z,15.60
2019-03-04T06:17:07.259Z,15.20
2019-03-04T06:19:39.185Z,15.73
2019-03-04T06:22:11.162Z,16.20
2019-03-04T06:24:42.426Z,16.40
2019-03-04T06:27:15.256Z,15.80
2019-03-04T06:29:47.072Z,16.17
2019-03-04T06:32:19.370Z,18.47
2019-03-04T06:34:50.457Z,18.70
2019-03-04T06:37:22.032Z,17.10
2019-03-04T06:39:54.193Z,18.20
2019-03-04T06:42:26.064Z,19.60
2019-03-04T06:44:58.111Z,19.37
2019-03-04T06:47:29.479Z,18.00
2019-03-04T06:50:00.996Z,18.60
2019-03-04T06:52:33.370Z,19.27
2019-03-04T06:55:37.487Z,19.80
2019-03-04T06:58:09.132Z,19.87
2019-03-04T07:00:50.597Z,19.40
2019-03-04T07:03:33.210Z,19.27
2019-03-04T07:06:04.871Z,20.03
2019-03-04T07:09:15.339Z,19.63
2019-03-04T07:11:51.245Z,19.93
2019-03-04T07:14:22.456Z,19.53
2019-03-04T07:16:54.881Z,21.00
2019-03-04T07:19:30.872Z,20.20
2019-03-04T07:22:02.569Z,19.77
2019-03-04T07:24:35.607Z,19.63
2019-03-04T07:27:06.978Z,20.27
2019-03-04T07:29:38.439Z,19.20
2019-03-04T07:32:10.193Z,18.87
2019-03-04T07:34:40.920Z,18.37
2019-03-04T07:37:12.255Z,18.83
2019-03-04T07:39:43.372Z,19.93
2019-03-04T07:42:15.855Z,19.63
2019-03-04T07:44:46.807Z,18.97
2019-03-04T07:47:19.600Z,18.87
2019-03-04T07:49:52.625Z,19.23
2019-03-04T07:52:24.198Z,18.03
2019-03-04T07:54:55.879Z,18.63
2019-03-04T07:57:27.130Z,21.27
2019-03-04T07:59:58.128Z,18.30
2019-03-04T08:02:29.640Z,19.27
2019-03-04T08:05:01.607Z,22.37
2019-03-04T08:07:40.874Z,23.73
2019-03-04T08:10:54.881Z,22.73
2019-03-04T08:13:34.239Z,20.20
2019-03-04T08:16:06.874Z,19.40
2019-03-04T08:18:39.804Z,19.07
2019-03-04T08:21:10.919Z,18.97
2019-03-04T08:23:44.064Z,19.50
2019-03-04T08:26:16.900Z,18.60
2019-03-04T08:28:49.593Z,19.80
2019-03-04T08:31:21.416Z,17.63
2019-03-04T08:33:53.117Z,18.37
2019-03-04T08:36:25.051Z,18.50
2019-03-04T08:38:56.448Z,18.93
2019-03-04T08:41:30.008Z,17.37
2019-03-04T08:44:01.901Z,18.67
2019-03-04T08:46:33.009Z,17.90
2019-03-04T08:49:04.408Z,19.60
2019-03-04T08:51:36.139Z,18.90
2019-03-04T08:54:07.031Z,19.10
2019-03-04T08:56:38.015Z,18.97
2019-03-04T08:59:09.956Z,20.43
2019-03-04T09:01:41.449Z,19.47
2019-03-04T09:04:13.684Z,19.40
2019-03-04T09:06:45.562Z,19.37
2019-03-04T09:09:17.124Z,18.33
2019-03-04T09:11:50.203Z,19.03
2019-03-04T09:14:20.930Z,19.00
2019-03-04T09:16:52.331Z,17.73
2019-03-04T09:19:23.737Z,17.70
2019-03-04T09:21:55.031Z,16.83
2019-03-04T09:24:25.723Z,19.10
2019-03-04T09:26:56.634Z,18.87
2019-03-04T09:29:28.853Z,18.30
2019-03-04T09:32:00.511Z,17.53
2019-03-04T09:34:31.804Z,17.93
2019-03-04T09:37:03.791Z,17.00
2019-03-04T09:39:35.656Z,18.57
2019-03-04T09:42:31.851Z,17.10
2019-03-04T09:45:03.073Z,18.97
2019-03-04T09:47:35.443Z,18.00
2019-03-04T09:50:08.594Z,17.50
2019-03-04T09:52:39.623Z,18.70
2019-03-04T09:55:11.482Z,17.40
2019-03-04T09:57:43.432Z,16.60
2019-03-04T10:00:40.248Z,16.83
2019-03-04T10:03:56.718Z,16.80
2019-03-04T10:06:43.765Z,17.90
2019-03-04T10:09:54.246Z,16.73
2019-03-04T10:12:45.724Z,17.30
2019-03-04T10:15:30.068Z,19.50
2019-03-04T10:18:28.644Z,18.60
2019-03-04T10:21:24.451Z,16.83
2019-03-04T10:24:22.452Z,18.67
2019-03-04T10:27:22.167Z,18.07
2019-03-04T10:31:03.036Z,16.87
2019-03-04T10:33:55.767Z,16.77
2019-03-04T10:36:53.967Z,18.17
2019-03-04T10:40:24.810Z,18.27
2019-03-04T10:43:30.139Z,18.37
2019-03-04T10:46:27.050Z,18.48
2019-03-04T10:48:58.130Z,18.73
2019-03-04T10:51:30.171Z,18.90
2019-03-04T10:54:01.604Z,19.57
2019-03-04T10:56:32.926Z,19.63
2019-03-04T10:59:04.466Z,19.07
2019-03-04T11:01:36.666Z,20.53
2019-03-04T11:04:08.528Z,22.07
2019-03-04T11:06:40.688Z,19.63
2019-03-04T11:09:12.309Z,18.97
2019-03-04T11:11:43.196Z,19.63
2019-03-04T11:14:15.050Z,20.67
2019-03-04T11:16:46.185Z,18.67
2019-03-04T11:19:17.363Z,23.63
2019-03-04T11:21:49.146Z,18.33
2019-03-04T11:24:20.931Z,19.80
2019-03-04T11:26:52.111Z,18.67
2019-03-04T11:29:24.855Z,20.30
2019-03-04T11:31:55.684Z,19.97
2019-03-04T11:34:27.718Z,18.97
2019-03-04T11:36:58.489Z,18.70
2019-03-04T11:39:48.739Z,19.73
2019-03-04T11:42:20.724Z,17.70
2019-03-04T11:44:52.603Z,19.90
2019-03-04T11:47:27.116Z,19.97
2019-03-04T11:49:58.758Z,19.80
2019-03-04T11:52:29.623Z,18.90
2019-03-04T11:55:00.583Z,18.63
2019-03-04T11:57:32.518Z,18.07
2019-03-04T12:00:06.793Z,19.43
2019-03-04T12:02:39.289Z,19.00
2019-03-04T12:05:11.726Z,19.67
2019-03-04T12:07:43.084Z,19.17
2019-03-04T12:10:15.965Z,18.50
2019-03-04T12:12:47.121Z,18.37
2019-03-04T12:15:19.324Z,18.40
2019-03-04T12:17:50.227Z,19.33
2019-03-04T12:20:23.433Z,18.57
2019-03-04T12:22:55.113Z,18.43
2019-03-04T12:25:26.786Z,18.90
2019-03-04T12:27:58.967Z,18.70
2019-03-04T12:30:30.768Z,18.07
2019-03-04T12:33:03.170Z,18.87
2019-03-04T12:35:35.244Z,19.47
2019-03-04T12:38:06.803Z,18.80
2019-03-04T12:40:38.564Z,20.30
2019-03-04T12:43:11.728Z,17.87
2019-03-04T12:45:44.156Z,19.30
2019-03-04T12:48:16.158Z,19.83
2019-03-04T12:50:47.044Z,19.40
2019-03-04T12:53:18.043Z,19.90
2019-03-04T12:55:49.826Z,19.27
2019-03-04T12:58:23.367Z,18.43
2019-03-04T13:00:54.924Z,20.47
2019-03-04T13:03:27.588Z,18.93
2019-03-04T13:05:58.794Z,18.07
2019-03-04T13:08:30.448Z,18.67
2019-03-04T13:11:02.170Z,18.20
2019-03-04T13:13:34.368Z,19.90
2019-03-04T13:16:07.401Z,18.00
2019-03-04T13:18:38.604Z,17.40
2019-03-04T13:21:11.766Z,18.50
2019-03-04T13:23:44.005Z,19.30
2019-03-04T13:26:15.500Z,19.33
2019-03-04T13:28:48.321Z,18.27
2019-03-04T13:31:20.464Z,18.57
2019-03-04T13:33:51.456Z,17.50
2019-03-04T13:36:23.128Z,20.03
2019-03-04T13:38:55.326Z,17.70
2019-03-04T13:41:27.582Z,18.90
2019-03-04T13:43:59.428Z,17.70
2019-03-04T13:46:31.165Z,18.17
2019-03-04T13:49:02.152Z,19.07
2019-03-04T13:51:33.323Z,18.50
2019-03-04T13:54:05.644Z,18.87
2019-03-04T13:56:37.269Z,18.77
2019-03-04T13:59:08.816Z,19.07
2019-03-04T14:01:40.444Z,20.00
2019-03-04T14:04:12.766Z,18.27
2019-03-04T14:06:45.963Z,19.03
2019-03-04T14:09:20.603Z,18.57
2019-03-04T14:11:54.296Z,18.90
2019-03-04T14:14:25.912Z,18.50
2019-03-04T14:16:57.287Z,19.17
2019-03-04T14:19:29.066Z,19.07
2019-03-04T14:22:00.487Z,18.23
2019-03-04T14:24:32.284Z,17.67
2019-03-04T14:27:04.044Z,17.87
2019-03-04T14:29:36.090Z,18.50
2019-03-04T14:32:07.666Z,17.53
2019-03-04T14:34:39.366Z,17.73
2019-03-04T14:37:11.124Z,17.77
2019-03-04T14:39:41.964Z,16.83
2019-03-04T14:42:14.864Z,15.27
2019-03-04T14:44:46.184Z,16.27
2019-03-04T14:47:17.623Z,16.80
2019-03-04T14:49:52.466Z,15.50
2019-03-04T14:52:24.124Z,16.03
2019-03-04T14:54:55.646Z,15.70
2019-03-04T14:57:27.283Z,16.00
2019-03-04T14:59:58.444Z,17.87
2019-03-04T15:02:30.727Z,16.43
2019-03-04T15:05:04.889Z,16.40
2019-03-04T15:07:36.542Z,16.30
2019-03-04T15:10:08.924Z,17.30
2019-03-04T15:12:41.347Z,17.47
2019-03-04T15:15:14.450Z,16.93
2019-03-04T15:17:45.990Z,14.73
2019-03-04T15:20:20.613Z,15.50
2019-03-04T15:22:53.969Z,17.50
2019-03-04T15:25:30.955Z,16.40
2019-03-04T15:28:18.844Z,15.47
2019-03-04T15:30:52.826Z,16.33
2019-03-04T15:33:26.294Z,16.03
2019-03-04T15:35:57.613Z,16.13
2019-03-04T15:38:28.261Z,17.17
2019-03-04T15:40:59.372Z,16.03
2019-03-04T15:43:30.790Z,16.30
2019-03-04T15:46:03.262Z,15.63
2019-03-04T15:48:34.702Z,16.77
2019-03-04T15:51:05.862Z,16.33
2019-03-04T15:53:36.919Z,15.80
2019-03-04T15:56:07.624Z,18.90
2019-03-04T15:58:39.053Z,15.80
2019-03-04T16:01:13.193Z,16.13
2019-03-04T16:03:44.671Z,15.80
2019-03-04T16:06:15.799Z,14.70
2019-03-04T16:08:47.452Z,15.67
2019-03-04T16:11:18.574Z,15.67
2019-03-04T16:13:52.966Z,16.40
2019-03-04T16:16:23.077Z,15.80
2019-03-04T16:18:54.997Z,15.97
2019-03-04T16:21:26.273Z,16.13
2019-03-04T16:23:59.185Z,14.83
2019-03-04T16:26:30.957Z,15.07
2019-03-04T16:29:01.938Z,15.10
2019-03-04T16:31:33.501Z,15.90
2019-03-04T16:34:05.806Z,13.40
2019-03-04T16:36:37.288Z,14.40
2019-03-04T16:39:08.643Z,14.60
2019-03-04T16:41:40.242Z,15.63
2019-03-04T16:44:11.357Z,13.40
2019-03-04T16:46:42.601Z,12.80
2019-03-04T16:49:13.783Z,17.03
2019-03-04T16:51:45.006Z,15.37
2019-03-04T16:54:16.758Z,13.20
2019-03-04T16:56:47.830Z,14.63
2019-03-04T16:59:18.965Z,15.30
2019-03-04T17:01:51.652Z,14.10
2019-03-04T17:04:23.073Z,13.57
2019-03-04T17:06:54.263Z,14.13
2019-03-04T17:09:25.087Z,14.60
2019-03-04T17:11:57.258Z,14.07
2019-03-04T17:14:28.626Z,13.97
2019-03-04T17:17:01.038Z,14.30
2019-03-04T17:19:32.665Z,14.03
2019-03-04T17:22:03.621Z,15.30
2019-03-04T17:24:35.316Z,13.93
2019-03-04T17:27:07.104Z,15.07
2019-03-04T17:29:38.460Z,14.23
2019-03-04T17:32:11.464Z,14.90
2019-03-04T17:34:42.876Z,14.13
2019-03-04T17:37:14.088Z,15.00
2019-03-04T17:39:45.220Z,14.90
2019-03-04T17:42:17.719Z,13.60
2019-03-04T17:44:50.102Z,12.73
2019-03-04T17:47:21.946Z,13.53
2019-03-04T17:49:52.614Z,14.23
2019-03-04T17:52:23.573Z,12.93
2019-03-04T17:54:55.133Z,13.37
2019-03-04T17:57:26.616Z,14.40
2019-03-04T17:59:57.265Z,14.20
2019-03-04T18:02:28.607Z,15.07
2019-03-04T18:04:59.771Z,14.77
2019-03-04T18:07:30.589Z,15.23
2019-03-04T18:10:03.311Z,15.87
2019-03-04T18:12:34.414Z,15.93
2019-03-04T18:15:10.332Z,15.87
2019-03-04T18:17:42.849Z,15.93
2019-03-04T18:20:15.173Z,16.27
2019-03-04T18:22:47.198Z,17.53
2019-03-04T18:25:29.363Z,17.07
2019-03-04T18:28:04.516Z,17.37
2019-03-04T18:31:10.231Z,17.63
2019-03-04T18:34:30.316Z,18.77
2019-03-04T18:37:32.315Z,18.67
2019-03-04T18:40:39.506Z,17.33
2019-03-04T18:43:46.851Z,17.67
2019-03-04T18:46:59.083Z,18.20
2019-03-04T18:49:30.547Z,16.97
2019-03-04T18:52:01.816Z,16.97
2019-03-04T18:54:33.484Z,16.57
2019-03-04T18:57:05.948Z,16.43
2019-03-04T18:59:37.749Z,17.13
2019-03-04T19:02:09.785Z,17.17
2019-03-04T19:04:41.000Z,18.03
2019-03-04T19:07:13.187Z,17.10
2019-03-04T19:09:44.932Z,17.60
2019-03-04T19:12:16.387Z,17.67
2019-03-04T19:14:48.372Z,17.50
2019-03-04T19:17:21.346Z,16.67
2019-03-04T19:19:57.933Z,16.53
2019-03-04T19:22:29.983Z,15.33
2019-03-04T19:25:01.460Z,16.30
2019-03-04T19:27:38.200Z,16.47
2019-03-04T19:30:10.273Z,16.03
2019-03-04T19:32:43.305Z,15.83
2019-03-04T19:35:15.644Z,16.73
2019-03-04T19:37:47.672Z,17.73
2019-03-04T19:40:20.073Z,16.50
2019-03-04T19:42:57.186Z,16.03
2019-03-04T19:45:37.824Z,15.97
2019-03-04T19:48:09.426Z,15.67
2019-03-04T19:50:42.814Z,19.10
2019-03-04T19:53:17.491Z,15.87
2019-03-04T19:55:49.506Z,16.10
2019-03-04T19:58:22.972Z,17.73
2019-03-04T20:00:53.852Z,17.03
2019-03-04T20:03:26.709Z,16.33
2019-03-04T20:05:58.113Z,16.07
2019-03-04T20:08:34.431Z,17.53
2019-03-04T20:11:07.427Z,15.53
2019-03-04T20:13:39.121Z,15.10
2019-03-04T20:16:12.043Z,15.17
2019-03-04T20:18:43.972Z,14.23
2019-03-04T20:21:15.359Z,14.57
2019-03-04T20:23:47.128Z,14.93
2019-03-04T20:26:18.964Z,14.30
2019-03-04T20:28:50.970Z,15.63
2019-03-04T20:31:22.072Z,15.20
2019-03-04T20:33:53.749Z,15.90
2019-03-04T20:36:37.986Z,16.07
2019-03-04T20:39:12.038Z,15.53
2019-03-04T20:41:42.893Z,15.40
2019-03-04T20:44:16.121Z,15.63
2019-03-04T20:46:47.540Z,14.80
2019-03-04T20:49:19.137Z,15.90
2019-03-04T20:51:50.006Z,13.80
2019-03-04T20:54:21.075Z,15.20
2019-03-04T20:56:52.718Z,14.00
2019-03-04T20:59:23.933Z,13.80
2019-03-04T21:01:56.508Z,13.10
2019-03-04T21:04:27.946Z,13.63
2019-03-04T21:07:00.349Z,13.80
2019-03-04T21:09:31.913Z,13.37
2019-03-04T21:12:03.435Z,14.40
2019-03-04T21:14:34.517Z,14.17
2019-03-04T21:17:05.773Z,13.90
2019-03-04T21:19:37.055Z,12.13
2019-03-04T21:22:08.566Z,12.90
2019-03-04T21:24:39.139Z,13.27
2019-03-04T21:27:10.178Z,12.33
2019-03-04T21:30:12.865Z,12.23
2019-03-04T21:33:02.598Z,12.60
2019-03-04T21:36:04.231Z,14.00
2019-03-04T21:38:36.144Z,13.43
2019-03-04T21:41:47.611Z,13.20
2019-03-04T21:44:42.931Z,13.80
2019-03-04T21:47:35.699Z,14.00
2019-03-04T21:50:08.715Z,14.53
2019-03-04T21:53:13.135Z,13.80
2019-03-04T21:56:30.251Z,13.47
2019-03-04T21:59:01.570Z,13.50
2019-03-04T22:01:37.016Z,13.00
2019-03-04T22:04:08.333Z,14.27
2019-03-04T22:06:39.529Z,14.00
2019-03-04T22:09:10.539Z,13.60
2019-03-04T22:11:41.356Z,13.87
2019-03-04T22:14:13.420Z,14.17
2019-03-04T22:16:44.885Z,14.57
2019-03-04T22:19:16.891Z,13.87
2019-03-04T22:21:47.548Z,14.37
2019-03-04T22:24:18.724Z,13.90
2019-03-04T22:26:49.713Z,14.60
2019-03-04T22:29:20.158Z,14.70
2019-03-04T22:31:50.781Z,13.93
2019-03-04T22:34:21.899Z,14.97
2019-03-04T22:36:52.370Z,13.70
2019-03-04T22:39:23.084Z,13.73
2019-03-04T22:41:53.614Z,14.30
2019-03-04T22:44:24.013Z,14.70
2019-03-04T22:46:54.735Z,15.20
2019-03-04T22:49:25.999Z,14.80
2019-03-04T22:51:56.623Z,17.13
2019-03-04T22:54:27.654Z,16.13
2019-03-04T22:56:58.401Z,15.83
2019-03-04T22:59:29.851Z,16.40
2019-03-04T23:02:03.880Z,16.67
2019-03-04T23:04:55.893Z,16.33
2019-03-04T23:07:32.173Z,15.73
2019-03-04T23:10:32.392Z,16.60
2019-03-04T23:13:42.417Z,16.13
2019-03-04T23:16:15.091Z,15.00
2019-03-04T23:18:45.982Z,16.40
2019-03-04T23:21:16.941Z,16.20
2019-03-04T23:23:47.429Z,17.77
2019-03-04T23:26:18.080Z,15.67
2019-03-04T23:28:48.751Z,15.83
2019-03-04T23:31:19.692Z,16.20
2019-03-04T23:33:51.435Z,16.53
2019-03-04T23:36:21.989Z,16.10
2019-03-04T23:38:53.051Z,15.37
2019-03-04T23:41:23.850Z,15.53
2019-03-04T23:43:54.268Z,15.70
2019-03-04T23:46:24.593Z,15.90
2019-03-04T23:48:54.941Z,16.43
2019-03-04T23:51:25.776Z,16.13
2019-03-04T23:53:56.253Z,16.40
2019-03-04T23:56:26.951Z,16.67
2019-03-04T23:58:57.667Z,16.27
